sensor_id;sensor_type;location;lat;lon;timestamp;P1;durP1;ratioP1;P2;durP2;ratioP2
50555;SDS011;36508;52.512;13.450;2023-02-24T00:01:58;46.57;;;22.90;;
50555;SDS011;36508;52.512;13.450;2023-02-24T00:04:35;37.90;;;21.47;;
50555;SDS011;36508;52.512;13.450;2023-02-24T00:07:03;44.37;;;20.93;;
50555;SDS011;36508;52.512;13.450;2023-02-24T00:09:30;38.90;;;21.50;;
50555;SDS011;36508;52.512;13.450;2023-02-24T00:11:59;35.83;;;18.73;;
50555;SDS011;36508;52.512;13.450;2023-02-24T00:14:27;38.53;;;20.97;;
50555;SDS011;36508;52.512;13.450;2023-02-24T00:16:56;43.87;;;21.60;;
50555;SDS011;36508;52.512;13.450;2023-02-24T00:19:26;46.53;;;25.10;;
50555;SDS011;36508;52.512;13.450;2023-02-24T00:21:56;38.50;;;21.00;;
50555;SDS011;36508;52.512;13.450;2023-02-24T00:24:24;33.50;;;22.80;;
50555;SDS011;36508;52.512;13.450;2023-02-24T00:26:54;39.60;;;21.23;;
50555;SDS011;36508;52.512;13.450;2023-02-24T00:29:27;31.10;;;19.53;;
50555;SDS011;36508;52.512;13.450;2023-02-24T00:31:54;32.90;;;19.23;;
50555;SDS011;36508;52.512;13.450;2023-02-24T00:34:28;33.83;;;20.90;;
50555;SDS011;36508;52.512;13.450;2023-02-24T00:39:50;28.90;;;18.07;;
50555;SDS011;36508;52.512;13.450;2023-02-24T00:42:16;40.00;;;21.57;;
50555;SDS011;36508;52.512;13.450;2023-02-24T00:44:48;29.90;;;17.40;;
50555;SDS011;36508;52.512;13.450;2023-02-24T00:47:18;28.73;;;18.00;;
50555;SDS011;36508;52.512;13.450;2023-02-24T00:49:44;36.50;;;18.97;;
50555;SDS011;36508;52.512;13.450;2023-02-24T00:52:11;31.60;;;15.30;;
50555;SDS011;36508;52.512;13.450;2023-02-24T00:55:03;29.37;;;15.13;;
50555;SDS011;36508;52.512;13.450;2023-02-24T00:57:39;31.47;;;14.90;;
50555;SDS011;36508;52.512;13.450;2023-02-24T01:00:05;19.20;;;11.20;;
50555;SDS011;36508;52.512;13.450;2023-02-24T01:02:41;16.60;;;10.20;;
50555;SDS011;36508;52.512;13.450;2023-02-24T01:05:14;20.87;;;8.93;;
50555;SDS011;36508;52.512;13.450;2023-02-24T01:07:40;19.90;;;10.57;;
50555;SDS011;36508;52.512;13.450;2023-02-24T01:10:06;21.37;;;9.40;;
50555;SDS011;36508;52.512;13.450;2023-02-24T01:12:36;20.40;;;9.90;;
50555;SDS011;36508;52.512;13.450;2023-02-24T01:15:09;26.67;;;9.90;;
50555;SDS011;36508;52.512;13.450;2023-02-24T01:17:35;20.67;;;9.93;;
50555;SDS011;36508;52.512;13.450;2023-02-24T01:20:05;14.27;;;8.50;;
50555;SDS011;36508;52.512;13.450;2023-02-24T01:22:47;18.50;;;9.07;;
50555;SDS011;36508;52.512;13.450;2023-02-24T01:25:14;13.30;;;8.30;;
50555;SDS011;36508;52.512;13.450;2023-02-24T01:27:44;20.57;;;8.40;;
50555;SDS011;36508;52.512;13.450;2023-02-24T01:30:24;18.70;;;9.60;;
50555;SDS011;36508;52.512;13.450;2023-02-24T01:32:49;13.77;;;6.30;;
50555;SDS011;36508;52.512;13.450;2023-02-24T01:35:15;12.23;;;6.63;;
50555;SDS011;36508;52.512;13.450;2023-02-24T01:37:44;16.80;;;9.47;;
50555;SDS011;36508;52.512;13.450;2023-02-24T01:40:11;15.87;;;5.47;;
50555;SDS011;36508;52.512;13.450;2023-02-24T01:42:44;14.90;;;5.80;;
50555;SDS011;36508;52.512;13.450;2023-02-24T01:45:13;14.93;;;7.23;;
50555;SDS011;36508;52.512;13.450;2023-02-24T01:47:42;17.27;;;5.47;;
50555;SDS011;36508;52.512;13.450;2023-02-24T01:50:11;11.90;;;5.87;;
50555;SDS011;36508;52.512;13.450;2023-02-24T01:52:39;22.00;;;6.10;;
50555;SDS011;36508;52.512;13.450;2023-02-24T01:55:15;13.40;;;5.27;;
50555;SDS011;36508;52.512;13.450;2023-02-24T01:58:04;16.17;;;5.30;;
50555;SDS011;36508;52.512;13.450;2023-02-24T02:00:35;8.77;;;6.27;;
50555;SDS011;36508;52.512;13.450;2023-02-24T02:03:07;17.20;;;5.33;;
50555;SDS011;36508;52.512;13.450;2023-02-24T02:05:36;8.17;;;5.00;;
50555;SDS011;36508;52.512;13.450;2023-02-24T02:08:03;14.90;;;4.40;;
50555;SDS011;36508;52.512;13.450;2023-02-24T02:10:30;8.30;;;3.93;;
50555;SDS011;36508;52.512;13.450;2023-02-24T02:13:03;12.23;;;5.33;;
50555;SDS011;36508;52.512;13.450;2023-02-24T02:15:49;12.53;;;4.97;;
50555;SDS011;36508;52.512;13.450;2023-02-24T02:37:31;9.23;;;3.10;;
50555;SDS011;36508;52.512;13.450;2023-02-24T02:42:52;12.37;;;3.30;;
50555;SDS011;36508;52.512;13.450;2023-02-24T02:45:37;11.80;;;2.90;;
50555;SDS011;36508;52.512;13.450;2023-02-24T02:49:16;14.37;;;3.17;;
50555;SDS011;36508;52.512;13.450;2023-02-24T02:51:35;15.63;;;4.40;;
50555;SDS011;36508;52.512;13.450;2023-02-24T02:54:28;9.60;;;3.27;;
50555;SDS011;36508;52.512;13.450;2023-02-24T02:57:07;10.70;;;3.30;;
50555;SDS011;36508;52.512;13.450;2023-02-24T02:59:42;7.50;;;3.23;;
50555;SDS011;36508;52.512;13.450;2023-02-24T03:02:16;5.90;;;2.67;;
50555;SDS011;36508;52.512;13.450;2023-02-24T03:04:45;12.00;;;3.20;;
50555;SDS011;36508;52.512;13.450;2023-02-24T03:07:19;8.50;;;2.90;;
50555;SDS011;36508;52.512;13.450;2023-02-24T03:09:55;14.57;;;3.03;;
50555;SDS011;36508;52.512;13.450;2023-02-24T03:12:27;8.33;;;2.87;;
50555;SDS011;36508;52.512;13.450;2023-02-24T03:15:02;13.23;;;4.10;;
50555;SDS011;36508;52.512;13.450;2023-02-24T03:17:36;13.17;;;3.60;;
50555;SDS011;36508;52.512;13.450;2023-02-24T03:23:14;9.90;;;2.97;;
50555;SDS011;36508;52.512;13.450;2023-02-24T03:26:05;15.60;;;3.60;;
50555;SDS011;36508;52.512;13.450;2023-02-24T03:31:46;20.53;;;5.07;;
50555;SDS011;36508;52.512;13.450;2023-02-24T03:34:22;9.23;;;3.03;;
50555;SDS011;36508;52.512;13.450;2023-02-24T03:36:57;3.67;;;2.63;;
50555;SDS011;36508;52.512;13.450;2023-02-24T03:39:26;11.83;;;3.33;;
50555;SDS011;36508;52.512;13.450;2023-02-24T03:41:54;5.43;;;2.83;;
50555;SDS011;36508;52.512;13.450;2023-02-24T03:44:28;10.70;;;4.67;;
50555;SDS011;36508;52.512;13.450;2023-02-24T03:46:54;10.23;;;2.57;;
50555;SDS011;36508;52.512;13.450;2023-02-24T03:49:20;7.47;;;3.17;;
50555;SDS011;36508;52.512;13.450;2023-02-24T03:55:07;9.57;;;4.80;;
50555;SDS011;36508;52.512;13.450;2023-02-24T03:57:45;12.23;;;3.53;;
50555;SDS011;36508;52.512;13.450;2023-02-24T04:06:04;18.23;;;4.27;;
50555;SDS011;36508;52.512;13.450;2023-02-24T04:09:00;5.53;;;3.20;;
50555;SDS011;36508;52.512;13.450;2023-02-24T04:11:32;9.43;;;3.20;;
50555;SDS011;36508;52.512;13.450;2023-02-24T04:17:37;9.57;;;3.30;;
50555;SDS011;36508;52.512;13.450;2023-02-24T04:22:45;6.37;;;2.43;;
50555;SDS011;36508;52.512;13.450;2023-02-24T04:25:17;9.40;;;5.07;;
50555;SDS011;36508;52.512;13.450;2023-02-24T04:27:48;7.73;;;3.17;;
50555;SDS011;36508;52.512;13.450;2023-02-24T04:30:20;3.73;;;2.97;;
50555;SDS011;36508;52.512;13.450;2023-02-24T04:32:48;10.17;;;3.83;;
50555;SDS011;36508;52.512;13.450;2023-02-24T04:35:15;13.13;;;6.93;;
50555;SDS011;36508;52.512;13.450;2023-02-24T04:37:47;7.30;;;4.43;;
50555;SDS011;36508;52.512;13.450;2023-02-24T04:40:19;7.07;;;3.70;;
50555;SDS011;36508;52.512;13.450;2023-02-24T04:42:50;6.60;;;3.77;;
50555;SDS011;36508;52.512;13.450;2023-02-24T04:45:22;7.20;;;3.47;;
50555;SDS011;36508;52.512;13.450;2023-02-24T04:47:57;12.23;;;3.67;;
50555;SDS011;36508;52.512;13.450;2023-02-24T04:50:26;13.90;;;4.87;;
50555;SDS011;36508;52.512;13.450;2023-02-24T04:52:55;6.20;;;3.83;;
50555;SDS011;36508;52.512;13.450;2023-02-24T04:55:25;10.13;;;3.50;;
50555;SDS011;36508;52.512;13.450;2023-02-24T04:57:56;5.30;;;3.20;;
50555;SDS011;36508;52.512;13.450;2023-02-24T05:00:25;7.27;;;3.97;;
50555;SDS011;36508;52.512;13.450;2023-02-24T05:03:01;5.90;;;4.77;;
50555;SDS011;36508;52.512;13.450;2023-02-24T05:05:29;7.60;;;3.63;;
50555;SDS011;36508;52.512;13.450;2023-02-24T05:07:59;9.73;;;3.60;;
50555;SDS011;36508;52.512;13.450;2023-02-24T05:10:40;7.60;;;2.57;;
50555;SDS011;36508;52.512;13.450;2023-02-24T05:13:10;7.07;;;3.77;;
50555;SDS011;36508;52.512;13.450;2023-02-24T05:15:41;7.90;;;3.17;;
50555;SDS011;36508;52.512;13.450;2023-02-24T05:18:12;5.70;;;3.37;;
50555;SDS011;36508;52.512;13.450;2023-02-24T05:20:45;4.63;;;2.67;;
50555;SDS011;36508;52.512;13.450;2023-02-24T05:23:32;8.83;;;2.87;;
50555;SDS011;36508;52.512;13.450;2023-02-24T05:26:01;7.50;;;3.07;;
50555;SDS011;36508;52.512;13.450;2023-02-24T05:28:39;13.23;;;3.23;;
50555;SDS011;36508;52.512;13.450;2023-02-24T05:31:06;8.60;;;2.73;;
50555;SDS011;36508;52.512;13.450;2023-02-24T05:33:34;13.93;;;3.97;;
50555;SDS011;36508;52.512;13.450;2023-02-24T05:36:05;7.03;;;2.60;;
50555;SDS011;36508;52.512;13.450;2023-02-24T05:38:36;8.97;;;3.30;;
50555;SDS011;36508;52.512;13.450;2023-02-24T05:41:06;6.43;;;3.00;;
50555;SDS011;36508;52.512;13.450;2023-02-24T05:46:16;15.50;;;3.33;;
50555;SDS011;36508;52.512;13.450;2023-02-24T05:49:00;5.10;;;2.20;;
50555;SDS011;36508;52.512;13.450;2023-02-24T05:51:29;2.40;;;1.80;;
50555;SDS011;36508;52.512;13.450;2023-02-24T05:54:07;6.20;;;2.70;;
50555;SDS011;36508;52.512;13.450;2023-02-24T05:56:38;8.90;;;2.40;;
50555;SDS011;36508;52.512;13.450;2023-02-24T05:59:09;5.80;;;2.43;;
50555;SDS011;36508;52.512;13.450;2023-02-24T06:01:38;4.93;;;2.27;;
50555;SDS011;36508;52.512;13.450;2023-02-24T06:04:09;7.57;;;2.60;;
50555;SDS011;36508;52.512;13.450;2023-02-24T06:06:38;3.97;;;1.50;;
50555;SDS011;36508;52.512;13.450;2023-02-24T06:09:12;4.40;;;1.87;;
50555;SDS011;36508;52.512;13.450;2023-02-24T06:11:41;5.43;;;1.90;;
50555;SDS011;36508;52.512;13.450;2023-02-24T06:14:14;14.53;;;2.70;;
50555;SDS011;36508;52.512;13.450;2023-02-24T06:16:41;3.57;;;1.50;;
50555;SDS011;36508;52.512;13.450;2023-02-24T06:19:10;4.70;;;1.80;;
50555;SDS011;36508;52.512;13.450;2023-02-24T06:21:40;5.03;;;1.73;;
50555;SDS011;36508;52.512;13.450;2023-02-24T06:24:13;10.17;;;2.40;;
50555;SDS011;36508;52.512;13.450;2023-02-24T06:26:43;8.90;;;2.00;;
50555;SDS011;36508;52.512;13.450;2023-02-24T06:29:15;2.77;;;1.90;;
50555;SDS011;36508;52.512;13.450;2023-02-24T06:31:44;6.33;;;1.70;;
50555;SDS011;36508;52.512;13.450;2023-02-24T06:34:12;7.40;;;1.77;;
50555;SDS011;36508;52.512;13.450;2023-02-24T06:36:42;4.90;;;2.23;;
50555;SDS011;36508;52.512;13.450;2023-02-24T06:39:11;7.27;;;1.87;;
50555;SDS011;36508;52.512;13.450;2023-02-24T06:41:41;4.93;;;1.93;;
50555;SDS011;36508;52.512;13.450;2023-02-24T06:44:07;1.30;;;1.20;;
50555;SDS011;36508;52.512;13.450;2023-02-24T06:46:33;4.17;;;2.20;;
50555;SDS011;36508;52.512;13.450;2023-02-24T06:48:59;10.03;;;3.07;;
50555;SDS011;36508;52.512;13.450;2023-02-24T06:51:28;5.53;;;1.60;;
50555;SDS011;36508;52.512;13.450;2023-02-24T06:53:57;8.53;;;1.60;;
50555;SDS011;36508;52.512;13.450;2023-02-24T06:56:24;4.40;;;1.37;;
50555;SDS011;36508;52.512;13.450;2023-02-24T06:58:52;8.23;;;1.67;;
50555;SDS011;36508;52.512;13.450;2023-02-24T07:01:24;6.30;;;1.80;;
50555;SDS011;36508;52.512;13.450;2023-02-24T07:03:54;8.87;;;2.90;;
50555;SDS011;36508;52.512;13.450;2023-02-24T07:06:46;9.40;;;1.63;;
50555;SDS011;36508;52.512;13.450;2023-02-24T07:09:16;4.77;;;2.67;;
50555;SDS011;36508;52.512;13.450;2023-02-24T07:11:51;2.40;;;2.00;;
50555;SDS011;36508;52.512;13.450;2023-02-24T07:14:21;5.37;;;2.00;;
50555;SDS011;36508;52.512;13.450;2023-02-24T07:16:48;6.93;;;1.90;;
50555;SDS011;36508;52.512;13.450;2023-02-24T07:19:27;3.63;;;1.50;;
50555;SDS011;36508;52.512;13.450;2023-02-24T07:21:57;8.60;;;3.60;;
50555;SDS011;36508;52.512;13.450;2023-02-24T07:24:24;5.50;;;2.03;;
50555;SDS011;36508;52.512;13.450;2023-02-24T07:26:59;7.77;;;2.20;;
50555;SDS011;36508;52.512;13.450;2023-02-24T07:29:27;3.70;;;1.90;;
50555;SDS011;36508;52.512;13.450;2023-02-24T07:31:54;4.60;;;1.80;;
50555;SDS011;36508;52.512;13.450;2023-02-24T07:34:41;5.60;;;2.87;;
50555;SDS011;36508;52.512;13.450;2023-02-24T07:37:08;3.43;;;1.60;;
50555;SDS011;36508;52.512;13.450;2023-02-24T07:42:32;1.10;;;1.00;;
50555;SDS011;36508;52.512;13.450;2023-02-24T07:45:02;5.47;;;1.40;;
50555;SDS011;36508;52.512;13.450;2023-02-24T07:47:31;7.77;;;1.97;;
50555;SDS011;36508;52.512;13.450;2023-02-24T07:50:01;2.00;;;1.90;;
50555;SDS011;36508;52.512;13.450;2023-02-24T07:52:27;2.80;;;2.00;;
50555;SDS011;36508;52.512;13.450;2023-02-24T07:55:18;7.00;;;2.43;;
50555;SDS011;36508;52.512;13.450;2023-02-24T07:57:46;3.10;;;2.90;;
50555;SDS011;36508;52.512;13.450;2023-02-24T08:00:14;7.43;;;2.37;;
50555;SDS011;36508;52.512;13.450;2023-02-24T08:02:53;6.90;;;2.80;;
50555;SDS011;36508;52.512;13.450;2023-02-24T08:05:20;5.47;;;2.97;;
50555;SDS011;36508;52.512;13.450;2023-02-24T08:07:48;5.10;;;2.40;;
50555;SDS011;36508;52.512;13.450;2023-02-24T08:10:19;4.43;;;2.60;;
50555;SDS011;36508;52.512;13.450;2023-02-24T08:12:49;7.60;;;2.50;;
50555;SDS011;36508;52.512;13.450;2023-02-24T08:15:27;6.30;;;2.70;;
50555;SDS011;36508;52.512;13.450;2023-02-24T08:17:58;3.27;;;2.40;;
50555;SDS011;36508;52.512;13.450;2023-02-24T08:20:28;3.73;;;2.00;;
50555;SDS011;36508;52.512;13.450;2023-02-24T08:23:19;13.63;;;1.90;;
50555;SDS011;36508;52.512;13.450;2023-02-24T08:25:50;14.33;;;2.27;;
50555;SDS011;36508;52.512;13.450;2023-02-24T08:28:17;5.40;;;2.03;;
50555;SDS011;36508;52.512;13.450;2023-02-24T08:30:43;2.03;;;1.80;;
50555;SDS011;36508;52.512;13.450;2023-02-24T08:33:21;1.83;;;1.73;;
50555;SDS011;36508;52.512;13.450;2023-02-24T08:35:51;1.57;;;1.20;;
50555;SDS011;36508;52.512;13.450;2023-02-24T08:38:24;5.77;;;3.00;;
50555;SDS011;36508;52.512;13.450;2023-02-24T08:40:52;4.63;;;2.40;;
50555;SDS011;36508;52.512;13.450;2023-02-24T08:43:29;3.43;;;2.60;;
50555;SDS011;36508;52.512;13.450;2023-02-24T08:46:04;5.30;;;4.80;;
50555;SDS011;36508;52.512;13.450;2023-02-24T08:48:36;2.10;;;1.90;;
50555;SDS011;36508;52.512;13.450;2023-02-24T08:51:20;6.83;;;2.63;;
50555;SDS011;36508;52.512;13.450;2023-02-24T08:53:48;11.60;;;3.50;;
50555;SDS011;36508;52.512;13.450;2023-02-24T08:56:19;3.53;;;2.10;;
50555;SDS011;36508;52.512;13.450;2023-02-24T08:58:51;4.40;;;2.33;;
50555;SDS011;36508;52.512;13.450;2023-02-24T09:01:23;6.40;;;4.73;;
50555;SDS011;36508;52.512;13.450;2023-02-24T09:03:55;2.10;;;2.00;;
50555;SDS011;36508;52.512;13.450;2023-02-24T09:07:05;3.60;;;2.67;;
50555;SDS011;36508;52.512;13.450;2023-02-24T09:09:14;3.43;;;2.20;;
50555;SDS011;36508;52.512;13.450;2023-02-24T09:11:43;7.30;;;2.93;;
50555;SDS011;36508;52.512;13.450;2023-02-24T09:14:14;5.57;;;2.60;;
50555;SDS011;36508;52.512;13.450;2023-02-24T09:16:46;8.00;;;3.60;;
50555;SDS011;36508;52.512;13.450;2023-02-24T09:22:23;6.20;;;3.23;;
50555;SDS011;36508;52.512;13.450;2023-02-24T09:25:17;9.60;;;4.07;;
50555;SDS011;36508;52.512;13.450;2023-02-24T09:28:04;4.90;;;2.33;;
50555;SDS011;36508;52.512;13.450;2023-02-24T09:30:32;7.77;;;5.07;;
50555;SDS011;36508;52.512;13.450;2023-02-24T09:33:04;3.17;;;2.27;;
50555;SDS011;36508;52.512;13.450;2023-02-24T09:35:32;10.00;;;3.00;;
50555;SDS011;36508;52.512;13.450;2023-02-24T09:38:03;4.50;;;2.40;;
50555;SDS011;36508;52.512;13.450;2023-02-24T09:40:32;4.83;;;2.67;;
50555;SDS011;36508;52.512;13.450;2023-02-24T09:43:05;7.43;;;2.50;;
50555;SDS011;36508;52.512;13.450;2023-02-24T09:45:44;4.30;;;2.90;;
50555;SDS011;36508;52.512;13.450;2023-02-24T09:48:23;10.17;;;2.30;;
50555;SDS011;36508;52.512;13.450;2023-02-24T09:51:21;6.57;;;2.57;;
50555;SDS011;36508;52.512;13.450;2023-02-24T09:53:53;10.00;;;2.63;;
50555;SDS011;36508;52.512;13.450;2023-02-24T09:59:11;2.70;;;2.07;;
50555;SDS011;36508;52.512;13.450;2023-02-24T10:01:53;2.80;;;2.13;;
50555;SDS011;36508;52.512;13.450;2023-02-24T10:07:23;3.30;;;1.83;;
50555;SDS011;36508;52.512;13.450;2023-02-24T10:10:24;6.10;;;1.90;;
50555;SDS011;36508;52.512;13.450;2023-02-24T10:15:57;3.37;;;1.97;;
50555;SDS011;36508;52.512;13.450;2023-02-24T10:18:41;2.10;;;1.90;;
50555;SDS011;36508;52.512;13.450;2023-02-24T10:21:59;3.07;;;1.47;;
50555;SDS011;36508;52.512;13.450;2023-02-24T10:24:40;4.77;;;1.67;;
50555;SDS011;36508;52.512;13.450;2023-02-24T10:30:13;4.67;;;1.90;;
50555;SDS011;36508;52.512;13.450;2023-02-24T10:32:55;4.83;;;1.07;;
50555;SDS011;36508;52.512;13.450;2023-02-24T10:35:25;3.30;;;1.60;;
50555;SDS011;36508;52.512;13.450;2023-02-24T10:37:57;3.47;;;1.43;;
50555;SDS011;36508;52.512;13.450;2023-02-24T10:40:29;1.30;;;1.20;;
50555;SDS011;36508;52.512;13.450;2023-02-24T10:43:18;7.17;;;1.90;;
50555;SDS011;36508;52.512;13.450;2023-02-24T10:45:54;1.50;;;1.40;;
50555;SDS011;36508;52.512;13.450;2023-02-24T10:48:34;4.50;;;2.40;;
50555;SDS011;36508;52.512;13.450;2023-02-24T10:51:23;1.63;;;1.40;;
50555;SDS011;36508;52.512;13.450;2023-02-24T10:54:41;7.53;;;3.50;;
50555;SDS011;36508;52.512;13.450;2023-02-24T10:57:10;6.50;;;2.23;;
50555;SDS011;36508;52.512;13.450;2023-02-24T11:00:00;4.20;;;1.77;;
50555;SDS011;36508;52.512;13.450;2023-02-24T11:03:16;3.30;;;1.70;;
50555;SDS011;36508;52.512;13.450;2023-02-24T11:05:59;3.83;;;1.57;;
50555;SDS011;36508;52.512;13.450;2023-02-24T11:08:30;2.80;;;0.97;;
50555;SDS011;36508;52.512;13.450;2023-02-24T11:11:22;1.97;;;1.73;;
50555;SDS011;36508;52.512;13.450;2023-02-24T11:13:58;2.40;;;1.87;;
50555;SDS011;36508;52.512;13.450;2023-02-24T11:16:53;7.50;;;2.80;;
50555;SDS011;36508;52.512;13.450;2023-02-24T11:19:59;3.40;;;2.10;;
50555;SDS011;36508;52.512;13.450;2023-02-24T11:22:41;8.03;;;2.30;;
50555;SDS011;36508;52.512;13.450;2023-02-24T11:25:18;4.07;;;2.30;;
50555;SDS011;36508;52.512;13.450;2023-02-24T11:27:59;4.57;;;2.30;;
50555;SDS011;36508;52.512;13.450;2023-02-24T11:33:20;2.67;;;1.83;;
50555;SDS011;36508;52.512;13.450;2023-02-24T11:36:19;9.60;;;2.67;;
50555;SDS011;36508;52.512;13.450;2023-02-24T11:42:04;4.63;;;1.97;;
50555;SDS011;36508;52.512;13.450;2023-02-24T11:47:44;14.53;;;3.00;;
50555;SDS011;36508;52.512;13.450;2023-02-24T11:52:54;6.60;;;2.73;;
50555;SDS011;36508;52.512;13.450;2023-02-24T11:55:33;3.83;;;2.90;;
50555;SDS011;36508;52.512;13.450;2023-02-24T11:58:05;5.00;;;3.47;;
50555;SDS011;36508;52.512;13.450;2023-02-24T12:00:57;7.23;;;3.10;;
50555;SDS011;36508;52.512;13.450;2023-02-24T12:03:40;4.50;;;2.97;;
50555;SDS011;36508;52.512;13.450;2023-02-24T12:06:24;7.40;;;3.17;;
50555;SDS011;36508;52.512;13.450;2023-02-24T12:08:59;2.30;;;1.87;;
50555;SDS011;36508;52.512;13.450;2023-02-24T12:11:41;7.50;;;3.87;;
50555;SDS011;36508;52.512;13.450;2023-02-24T12:14:31;2.67;;;2.47;;
50555;SDS011;36508;52.512;13.450;2023-02-24T12:20:08;2.70;;;2.10;;
50555;SDS011;36508;52.512;13.450;2023-02-24T12:23:32;4.10;;;3.60;;
50555;SDS011;36508;52.512;13.450;2023-02-24T12:25:35;5.33;;;2.30;;
50555;SDS011;36508;52.512;13.450;2023-02-24T12:31:05;3.90;;;3.50;;
50555;SDS011;36508;52.512;13.450;2023-02-24T12:56:22;2.70;;;2.30;;
50555;SDS011;36508;52.512;13.450;2023-02-24T12:58:55;3.83;;;2.57;;
50555;SDS011;36508;52.512;13.450;2023-02-24T13:01:30;6.33;;;2.77;;
50555;SDS011;36508;52.512;13.450;2023-02-24T13:13:02;5.93;;;2.50;;
50555;SDS011;36508;52.512;13.450;2023-02-24T13:15:53;5.07;;;2.63;;
50555;SDS011;36508;52.512;13.450;2023-02-24T13:18:22;6.50;;;3.53;;
50555;SDS011;36508;52.512;13.450;2023-02-24T13:20:59;4.80;;;2.77;;
50555;SDS011;36508;52.512;13.450;2023-02-24T13:23:34;4.03;;;3.00;;
50555;SDS011;36508;52.512;13.450;2023-02-24T13:26:04;3.83;;;2.97;;
50555;SDS011;36508;52.512;13.450;2023-02-24T13:28:32;3.83;;;3.07;;
50555;SDS011;36508;52.512;13.450;2023-02-24T13:31:03;5.60;;;3.07;;
50555;SDS011;36508;52.512;13.450;2023-02-24T13:33:36;2.50;;;2.30;;
50555;SDS011;36508;52.512;13.450;2023-02-24T13:36:11;5.93;;;4.43;;
50555;SDS011;36508;52.512;13.450;2023-02-24T13:38:44;2.60;;;2.33;;
50555;SDS011;36508;52.512;13.450;2023-02-24T13:46:31;4.00;;;3.60;;
50555;SDS011;36508;52.512;13.450;2023-02-24T13:51:52;2.90;;;2.70;;
50555;SDS011;36508;52.512;13.450;2023-02-24T13:54:37;2.70;;;2.27;;
50555;SDS011;36508;52.512;13.450;2023-02-24T13:58:01;3.60;;;2.53;;
50555;SDS011;36508;52.512;13.450;2023-02-24T14:00:49;2.23;;;2.00;;
50555;SDS011;36508;52.512;13.450;2023-02-24T14:03:11;2.60;;;2.40;;
50555;SDS011;36508;52.512;13.450;2023-02-24T14:05:45;4.97;;;2.60;;
50555;SDS011;36508;52.512;13.450;2023-02-24T14:08:20;3.53;;;2.73;;
50555;SDS011;36508;52.512;13.450;2023-02-24T14:11:08;3.40;;;3.10;;
50555;SDS011;36508;52.512;13.450;2023-02-24T14:13:37;2.60;;;2.50;;
50555;SDS011;36508;52.512;13.450;2023-02-24T14:16:05;3.40;;;2.00;;
50555;SDS011;36508;52.512;13.450;2023-02-24T14:18:33;3.63;;;2.80;;
50555;SDS011;36508;52.512;13.450;2023-02-24T14:21:01;3.90;;;2.73;;
50555;SDS011;36508;52.512;13.450;2023-02-24T14:23:29;3.77;;;2.47;;
50555;SDS011;36508;52.512;13.450;2023-02-24T14:28:31;2.97;;;2.67;;
50555;SDS011;36508;52.512;13.450;2023-02-24T14:31:07;2.97;;;2.37;;
50555;SDS011;36508;52.512;13.450;2023-02-24T14:33:38;4.83;;;3.10;;
50555;SDS011;36508;52.512;13.450;2023-02-24T14:36:13;3.00;;;2.77;;
50555;SDS011;36508;52.512;13.450;2023-02-24T14:38:43;5.63;;;2.40;;
50555;SDS011;36508;52.512;13.450;2023-02-24T14:41:20;3.40;;;3.10;;
50555;SDS011;36508;52.512;13.450;2023-02-24T14:43:50;6.57;;;2.70;;
50555;SDS011;36508;52.512;13.450;2023-02-24T14:46:18;6.40;;;3.87;;
50555;SDS011;36508;52.512;13.450;2023-02-24T14:48:44;3.53;;;3.23;;
50555;SDS011;36508;52.512;13.450;2023-02-24T14:51:11;2.90;;;2.30;;
50555;SDS011;36508;52.512;13.450;2023-02-24T14:53:45;3.10;;;2.87;;
50555;SDS011;36508;52.512;13.450;2023-02-24T14:56:19;2.90;;;2.67;;
50555;SDS011;36508;52.512;13.450;2023-02-24T14:58:48;3.63;;;2.40;;
50555;SDS011;36508;52.512;13.450;2023-02-24T15:04:14;2.93;;;2.73;;
50555;SDS011;36508;52.512;13.450;2023-02-24T15:06:57;4.27;;;2.87;;
50555;SDS011;36508;52.512;13.450;2023-02-24T15:09:25;4.67;;;3.83;;
50555;SDS011;36508;52.512;13.450;2023-02-24T15:11:57;2.00;;;1.73;;
50555;SDS011;36508;52.512;13.450;2023-02-24T15:14:24;2.33;;;2.23;;
50555;SDS011;36508;52.512;13.450;2023-02-24T15:16:57;2.87;;;2.57;;
50555;SDS011;36508;52.512;13.450;2023-02-24T15:19:34;2.73;;;2.53;;
50555;SDS011;36508;52.512;13.450;2023-02-24T15:22:19;1.80;;;1.70;;
50555;SDS011;36508;52.512;13.450;2023-02-24T15:27:51;4.47;;;3.10;;
50555;SDS011;36508;52.512;13.450;2023-02-24T15:30:27;3.13;;;2.93;;
50555;SDS011;36508;52.512;13.450;2023-02-24T15:33:00;3.20;;;2.43;;
50555;SDS011;36508;52.512;13.450;2023-02-24T15:35:33;3.53;;;3.30;;
50555;SDS011;36508;52.512;13.450;2023-02-24T15:38:01;2.87;;;2.67;;
50555;SDS011;36508;52.512;13.450;2023-02-24T15:40:28;2.10;;;2.00;;
50555;SDS011;36508;52.512;13.450;2023-02-24T15:43:09;2.73;;;2.60;;
50555;SDS011;36508;52.512;13.450;2023-02-24T15:45:37;2.60;;;2.40;;
50555;SDS011;36508;52.512;13.450;2023-02-24T15:48:17;3.33;;;3.00;;
50555;SDS011;36508;52.512;13.450;2023-02-24T15:50:46;2.63;;;2.43;;
50555;SDS011;36508;52.512;13.450;2023-02-24T15:53:14;3.10;;;2.90;;
50555;SDS011;36508;52.512;13.450;2023-02-24T15:55:40;3.80;;;3.50;;
50555;SDS011;36508;52.512;13.450;2023-02-24T15:58:17;3.17;;;2.90;;
50555;SDS011;36508;52.512;13.450;2023-02-24T16:00:45;3.40;;;3.20;;
50555;SDS011;36508;52.512;13.450;2023-02-24T16:03:17;2.90;;;2.80;;
50555;SDS011;36508;52.512;13.450;2023-02-24T16:05:43;5.10;;;3.80;;
50555;SDS011;36508;52.512;13.450;2023-02-24T16:08:14;3.83;;;3.53;;
50555;SDS011;36508;52.512;13.450;2023-02-24T16:10:42;3.53;;;3.33;;
50555;SDS011;36508;52.512;13.450;2023-02-24T16:13:14;3.60;;;3.30;;
50555;SDS011;36508;52.512;13.450;2023-02-24T16:15:44;2.83;;;2.63;;
50555;SDS011;36508;52.512;13.450;2023-02-24T16:18:18;3.00;;;2.80;;
50555;SDS011;36508;52.512;13.450;2023-02-24T16:20:46;4.43;;;4.13;;
50555;SDS011;36508;52.512;13.450;2023-02-24T16:23:18;3.23;;;3.03;;
50555;SDS011;36508;52.512;13.450;2023-02-24T16:25:46;4.23;;;3.93;;
50555;SDS011;36508;52.512;13.450;2023-02-24T16:28:14;4.47;;;4.17;;
50555;SDS011;36508;52.512;13.450;2023-02-24T16:30:42;3.70;;;3.30;;
50555;SDS011;36508;52.512;13.450;2023-02-24T16:33:10;7.20;;;4.03;;
50555;SDS011;36508;52.512;13.450;2023-02-24T16:35:37;3.10;;;3.00;;
50555;SDS011;36508;52.512;13.450;2023-02-24T16:38:06;5.27;;;4.87;;
50555;SDS011;36508;52.512;13.450;2023-02-24T16:40:40;3.80;;;3.60;;
50555;SDS011;36508;52.512;13.450;2023-02-24T16:43:08;6.03;;;5.67;;
50555;SDS011;36508;52.512;13.450;2023-02-24T16:45:34;5.37;;;5.07;;
50555;SDS011;36508;52.512;13.450;2023-02-24T16:48:00;5.40;;;5.00;;
50555;SDS011;36508;52.512;13.450;2023-02-24T16:50:32;6.37;;;5.97;;
50555;SDS011;36508;52.512;13.450;2023-02-24T16:53:11;6.10;;;5.57;;
50555;SDS011;36508;52.512;13.450;2023-02-24T16:55:40;6.60;;;6.10;;
50555;SDS011;36508;52.512;13.450;2023-02-24T16:58:07;5.53;;;5.13;;
50555;SDS011;36508;52.512;13.450;2023-02-24T17:00:34;7.27;;;6.80;;
50555;SDS011;36508;52.512;13.450;2023-02-24T17:03:01;7.10;;;6.60;;
50555;SDS011;36508;52.512;13.450;2023-02-24T17:05:34;7.20;;;6.70;;
50555;SDS011;36508;52.512;13.450;2023-02-24T17:08:00;6.80;;;6.30;;
50555;SDS011;36508;52.512;13.450;2023-02-24T17:10:26;7.80;;;7.07;;
50555;SDS011;36508;52.512;13.450;2023-02-24T17:12:52;8.33;;;7.70;;
50555;SDS011;36508;52.512;13.450;2023-02-24T17:15:22;7.20;;;6.60;;
50555;SDS011;36508;52.512;13.450;2023-02-24T17:17:48;9.77;;;8.97;;
50555;SDS011;36508;52.512;13.450;2023-02-24T17:20:16;6.90;;;6.47;;
50555;SDS011;36508;52.512;13.450;2023-02-24T17:22:43;10.73;;;9.73;;